sensor_id;sensor_type;location;lat;lon;timestamp;P1;durP1;ratioP1;P2;durP2;ratioP2
35558;SDS011;21661;50.794;-1.066;2023-06-24T00:01:15;18.90;;;11.30;;
35558;SDS011;21661;50.794;-1.066;2023-06-24T00:03:41;15.60;;;11.30;;
35558;SDS011;21661;50.794;-1.066;2023-06-24T00:06:11;17.92;;;13.02;;
35558;SDS011;21661;50.794;-1.066;2023-06-24T00:08:46;16.90;;;12.75;;
35558;SDS011;21661;50.794;-1.066;2023-06-24T00:11:12;17.13;;;11.85;;
35558;SDS011;21661;50.794;-1.066;2023-06-24T00:13:41;19.25;;;13.25;;
35558;SDS011;21661;50.794;-1.066;2023-06-24T00:16:08;23.85;;;13.98;;
35558;SDS011;21661;50.794;-1.066;2023-06-24T00:18:34;19.58;;;12.95;;
35558;SDS011;21661;50.794;-1.066;2023-06-24T00:21:01;18.65;;;13.55;;
35558;SDS011;21661;50.794;-1.066;2023-06-24T00:23:28;18.33;;;12.23;;
35558;SDS011;21661;50.794;-1.066;2023-06-24T00:25:55;22.85;;;15.60;;
35558;SDS011;21661;50.794;-1.066;2023-06-24T00:28:21;22.10;;;13.88;;
35558;SDS011;21661;50.794;-1.066;2023-06-24T00:30:47;18.73;;;13.60;;
35558;SDS011;21661;50.794;-1.066;2023-06-24T00:33:14;20.13;;;13.57;;
35558;SDS011;21661;50.794;-1.066;2023-06-24T00:35:40;21.90;;;13.60;;
35558;SDS011;21661;50.794;-1.066;2023-06-24T00:38:06;21.55;;;14.00;;
35558;SDS011;21661;50.794;-1.066;2023-06-24T00:40:32;23.00;;;15.45;;
35558;SDS011;21661;50.794;-1.066;2023-06-24T00:42:58;19.95;;;14.05;;
35558;SDS011;21661;50.794;-1.066;2023-06-24T00:45:26;20.42;;;14.32;;
35558;SDS011;21661;50.794;-1.066;2023-06-24T00:47:52;22.58;;;13.68;;
35558;SDS011;21661;50.794;-1.066;2023-06-24T00:50:21;22.95;;;13.43;;
35558;SDS011;21661;50.794;-1.066;2023-06-24T00:52:46;19.27;;;12.95;;
35558;SDS011;21661;50.794;-1.066;2023-06-24T00:55:14;18.15;;;12.48;;
35558;SDS011;21661;50.794;-1.066;2023-06-24T00:57:42;20.63;;;13.00;;
35558;SDS011;21661;50.794;-1.066;2023-06-24T01:00:09;20.52;;;13.20;;
35558;SDS011;21661;50.794;-1.066;2023-06-24T01:02:39;20.08;;;14.25;;
35558;SDS011;21661;50.794;-1.066;2023-06-24T01:05:07;20.05;;;14.10;;
35558;SDS011;21661;50.794;-1.066;2023-06-24T01:07:34;20.85;;;13.40;;
35558;SDS011;21661;50.794;-1.066;2023-06-24T01:10:05;19.48;;;14.18;;
35558;SDS011;21661;50.794;-1.066;2023-06-24T01:12:35;22.80;;;15.68;;
35558;SDS011;21661;50.794;-1.066;2023-06-24T01:28:25;17.02;;;12.68;;
35558;SDS011;21661;50.794;-1.066;2023-06-24T01:31:31;27.90;;;15.07;;
35558;SDS011;21661;50.794;-1.066;2023-06-24T01:36:35;20.38;;;13.25;;
35558;SDS011;21661;50.794;-1.066;2023-06-24T01:39:04;22.25;;;14.35;;
35558;SDS011;21661;50.794;-1.066;2023-06-24T01:41:40;18.42;;;13.20;;
35558;SDS011;21661;50.794;-1.066;2023-06-24T01:44:13;22.13;;;14.05;;
35558;SDS011;21661;50.794;-1.066;2023-06-24T01:49:07;18.13;;;12.63;;
35558;SDS011;21661;50.794;-1.066;2023-06-24T01:51:36;22.83;;;13.27;;
35558;SDS011;21661;50.794;-1.066;2023-06-24T01:54:06;18.70;;;13.20;;
35558;SDS011;21661;50.794;-1.066;2023-06-24T01:56:35;21.70;;;12.93;;
35558;SDS011;21661;50.794;-1.066;2023-06-24T01:59:02;18.85;;;11.63;;
35558;SDS011;21661;50.794;-1.066;2023-06-24T02:01:29;19.58;;;13.35;;
35558;SDS011;21661;50.794;-1.066;2023-06-24T02:03:57;16.23;;;11.40;;
35558;SDS011;21661;50.794;-1.066;2023-06-24T02:06:25;15.38;;;11.10;;
35558;SDS011;21661;50.794;-1.066;2023-06-24T02:08:53;16.88;;;11.60;;
35558;SDS011;21661;50.794;-1.066;2023-06-24T02:11:21;18.02;;;12.25;;
35558;SDS011;21661;50.794;-1.066;2023-06-24T02:13:48;18.98;;;11.98;;
35558;SDS011;21661;50.794;-1.066;2023-06-24T02:16:16;15.30;;;11.63;;
35558;SDS011;21661;50.794;-1.066;2023-06-24T02:18:43;15.40;;;11.20;;
35558;SDS011;21661;50.794;-1.066;2023-06-24T02:21:09;18.08;;;10.90;;
35558;SDS011;21661;50.794;-1.066;2023-06-24T02:23:36;17.15;;;11.38;;
35558;SDS011;21661;50.794;-1.066;2023-06-24T02:26:03;15.35;;;10.25;;
35558;SDS011;21661;50.794;-1.066;2023-06-24T02:28:30;12.68;;;9.93;;
35558;SDS011;21661;50.794;-1.066;2023-06-24T02:30:58;15.77;;;11.60;;
35558;SDS011;21661;50.794;-1.066;2023-06-24T02:33:24;15.05;;;10.60;;
35558;SDS011;21661;50.794;-1.066;2023-06-24T02:35:51;14.52;;;9.95;;
35558;SDS011;21661;50.794;-1.066;2023-06-24T02:38:17;14.30;;;9.95;;
35558;SDS011;21661;50.794;-1.066;2023-06-24T02:40:43;13.60;;;10.27;;
35558;SDS011;21661;50.794;-1.066;2023-06-24T02:43:10;13.50;;;10.07;;
35558;SDS011;21661;50.794;-1.066;2023-06-24T02:45:36;12.60;;;10.00;;
35558;SDS011;21661;50.794;-1.066;2023-06-24T02:48:02;12.85;;;10.07;;
35558;SDS011;21661;50.794;-1.066;2023-06-24T02:50:29;15.50;;;10.60;;
35558;SDS011;21661;50.794;-1.066;2023-06-24T02:52:55;16.33;;;11.60;;
35558;SDS011;21661;50.794;-1.066;2023-06-24T02:55:22;14.43;;;11.02;;
35558;SDS011;21661;50.794;-1.066;2023-06-24T02:57:48;13.88;;;10.48;;
35558;SDS011;21661;50.794;-1.066;2023-06-24T03:00:15;14.15;;;9.73;;
35558;SDS011;21661;50.794;-1.066;2023-06-24T03:02:41;14.10;;;10.55;;
35558;SDS011;21661;50.794;-1.066;2023-06-24T03:05:09;14.93;;;10.80;;
35558;SDS011;21661;50.794;-1.066;2023-06-24T03:07:36;13.57;;;9.90;;
35558;SDS011;21661;50.794;-1.066;2023-06-24T03:10:02;15.80;;;11.27;;
35558;SDS011;21661;50.794;-1.066;2023-06-24T03:12:30;14.52;;;10.52;;
35558;SDS011;21661;50.794;-1.066;2023-06-24T03:14:56;13.05;;;9.65;;
35558;SDS011;21661;50.794;-1.066;2023-06-24T03:17:22;12.35;;;9.27;;
35558;SDS011;21661;50.794;-1.066;2023-06-24T03:19:47;12.70;;;10.10;;
35558;SDS011;21661;50.794;-1.066;2023-06-24T03:22:13;15.00;;;11.48;;
35558;SDS011;21661;50.794;-1.066;2023-06-24T03:24:39;15.35;;;11.75;;
35558;SDS011;21661;50.794;-1.066;2023-06-24T03:27:04;18.20;;;12.27;;
35558;SDS011;21661;50.794;-1.066;2023-06-24T03:29:30;15.75;;;10.90;;
35558;SDS011;21661;50.794;-1.066;2023-06-24T03:31:55;14.48;;;11.50;;
35558;SDS011;21661;50.794;-1.066;2023-06-24T03:34:21;14.10;;;10.10;;
35558;SDS011;21661;50.794;-1.066;2023-06-24T03:36:47;16.42;;;11.23;;
35558;SDS011;21661;50.794;-1.066;2023-06-24T03:39:12;16.13;;;10.45;;
35558;SDS011;21661;50.794;-1.066;2023-06-24T03:41:38;13.80;;;10.75;;
35558;SDS011;21661;50.794;-1.066;2023-06-24T03:44:04;14.68;;;10.73;;
35558;SDS011;21661;50.794;-1.066;2023-06-24T03:46:29;17.05;;;11.43;;
35558;SDS011;21661;50.794;-1.066;2023-06-24T03:48:58;16.85;;;11.68;;
35558;SDS011;21661;50.794;-1.066;2023-06-24T03:51:25;16.90;;;11.68;;
35558;SDS011;21661;50.794;-1.066;2023-06-24T03:53:50;15.15;;;10.52;;
35558;SDS011;21661;50.794;-1.066;2023-06-24T03:56:16;13.88;;;10.20;;
35558;SDS011;21661;50.794;-1.066;2023-06-24T03:58:42;15.35;;;10.43;;
35558;SDS011;21661;50.794;-1.066;2023-06-24T04:01:07;16.30;;;11.20;;
35558;SDS011;21661;50.794;-1.066;2023-06-24T04:03:34;14.23;;;10.75;;
35558;SDS011;21661;50.794;-1.066;2023-06-24T04:06:00;16.25;;;11.20;;
35558;SDS011;21661;50.794;-1.066;2023-06-24T04:08:26;15.85;;;10.70;;
35558;SDS011;21661;50.794;-1.066;2023-06-24T04:10:55;15.98;;;10.98;;
35558;SDS011;21661;50.794;-1.066;2023-06-24T04:13:31;14.65;;;9.25;;
35558;SDS011;21661;50.794;-1.066;2023-06-24T04:15:57;16.48;;;10.85;;
35558;SDS011;21661;50.794;-1.066;2023-06-24T04:18:23;16.83;;;11.25;;
35558;SDS011;21661;50.794;-1.066;2023-06-24T04:20:48;13.75;;;10.65;;
35558;SDS011;21661;50.794;-1.066;2023-06-24T04:23:14;14.30;;;10.75;;
35558;SDS011;21661;50.794;-1.066;2023-06-24T04:25:40;15.77;;;10.73;;
35558;SDS011;21661;50.794;-1.066;2023-06-24T04:28:06;17.35;;;9.95;;
35558;SDS011;21661;50.794;-1.066;2023-06-24T04:30:34;15.43;;;9.80;;
35558;SDS011;21661;50.794;-1.066;2023-06-24T04:33:00;17.88;;;9.50;;
35558;SDS011;21661;50.794;-1.066;2023-06-24T04:35:26;16.58;;;10.65;;
35558;SDS011;21661;50.794;-1.066;2023-06-24T04:37:52;15.48;;;10.45;;
35558;SDS011;21661;50.794;-1.066;2023-06-24T04:40:18;15.57;;;10.60;;
35558;SDS011;21661;50.794;-1.066;2023-06-24T04:42:44;14.40;;;10.43;;
35558;SDS011;21661;50.794;-1.066;2023-06-24T04:45:10;14.35;;;10.85;;
35558;SDS011;21661;50.794;-1.066;2023-06-24T04:47:36;15.32;;;10.07;;
35558;SDS011;21661;50.794;-1.066;2023-06-24T04:50:02;14.50;;;10.20;;
35558;SDS011;21661;50.794;-1.066;2023-06-24T04:52:28;16.70;;;10.75;;
35558;SDS011;21661;50.794;-1.066;2023-06-24T04:54:54;18.55;;;11.50;;
35558;SDS011;21661;50.794;-1.066;2023-06-24T04:57:23;16.42;;;9.85;;
35558;SDS011;21661;50.794;-1.066;2023-06-24T04:59:51;20.77;;;10.68;;
35558;SDS011;21661;50.794;-1.066;2023-06-24T05:02:17;14.38;;;9.57;;
35558;SDS011;21661;50.794;-1.066;2023-06-24T05:04:42;16.77;;;10.05;;
35558;SDS011;21661;50.794;-1.066;2023-06-24T05:07:08;14.07;;;9.82;;
35558;SDS011;21661;50.794;-1.066;2023-06-24T05:09:33;16.10;;;10.07;;
35558;SDS011;21661;50.794;-1.066;2023-06-24T05:12:02;14.23;;;9.82;;
35558;SDS011;21661;50.794;-1.066;2023-06-24T05:14:31;14.60;;;9.57;;
35558;SDS011;21661;50.794;-1.066;2023-06-24T05:16:58;18.85;;;11.25;;
35558;SDS011;21661;50.794;-1.066;2023-06-24T05:19:24;19.50;;;10.93;;
35558;SDS011;21661;50.794;-1.066;2023-06-24T05:21:49;16.33;;;10.77;;
35558;SDS011;21661;50.794;-1.066;2023-06-24T05:24:15;17.67;;;11.07;;
35558;SDS011;21661;50.794;-1.066;2023-06-24T05:26:41;15.95;;;10.23;;
35558;SDS011;21661;50.794;-1.066;2023-06-24T05:29:06;14.50;;;10.52;;
35558;SDS011;21661;50.794;-1.066;2023-06-24T05:31:32;16.42;;;10.18;;
35558;SDS011;21661;50.794;-1.066;2023-06-24T05:33:57;15.38;;;11.00;;
35558;SDS011;21661;50.794;-1.066;2023-06-24T05:36:23;15.82;;;10.60;;
35558;SDS011;21661;50.794;-1.066;2023-06-24T05:38:48;15.63;;;10.98;;
35558;SDS011;21661;50.794;-1.066;2023-06-24T05:41:14;13.20;;;9.85;;
35558;SDS011;21661;50.794;-1.066;2023-06-24T05:43:42;13.15;;;9.02;;
35558;SDS011;21661;50.794;-1.066;2023-06-24T05:46:08;19.83;;;12.18;;
35558;SDS011;21661;50.794;-1.066;2023-06-24T05:48:34;14.00;;;10.50;;
35558;SDS011;21661;50.794;-1.066;2023-06-24T05:50:59;16.67;;;10.10;;
35558;SDS011;21661;50.794;-1.066;2023-06-24T05:53:25;13.57;;;9.93;;
35558;SDS011;21661;50.794;-1.066;2023-06-24T05:55:50;12.38;;;8.98;;
35558;SDS011;21661;50.794;-1.066;2023-06-24T05:58:16;15.00;;;10.60;;
35558;SDS011;21661;50.794;-1.066;2023-06-24T06:00:41;17.08;;;10.55;;
35558;SDS011;21661;50.794;-1.066;2023-06-24T06:03:07;15.98;;;10.07;;
35558;SDS011;21661;50.794;-1.066;2023-06-24T06:05:34;15.13;;;10.23;;
35558;SDS011;21661;50.794;-1.066;2023-06-24T06:07:59;16.58;;;10.48;;
35558;SDS011;21661;50.794;-1.066;2023-06-24T06:10:25;18.80;;;9.93;;
35558;SDS011;21661;50.794;-1.066;2023-06-24T06:12:51;13.50;;;9.77;;
35558;SDS011;21661;50.794;-1.066;2023-06-24T06:15:18;13.63;;;9.93;;
35558;SDS011;21661;50.794;-1.066;2023-06-24T06:17:45;13.32;;;9.32;;
35558;SDS011;21661;50.794;-1.066;2023-06-24T06:20:11;15.65;;;9.68;;
35558;SDS011;21661;50.794;-1.066;2023-06-24T06:22:37;13.82;;;9.40;;
35558;SDS011;21661;50.794;-1.066;2023-06-24T06:25:06;13.88;;;10.43;;
35558;SDS011;21661;50.794;-1.066;2023-06-24T06:27:32;14.15;;;9.65;;
35558;SDS011;21661;50.794;-1.066;2023-06-24T06:29:58;12.73;;;8.68;;
35558;SDS011;21661;50.794;-1.066;2023-06-24T06:32:24;13.38;;;9.18;;
35558;SDS011;21661;50.794;-1.066;2023-06-24T06:34:49;17.33;;;10.07;;
35558;SDS011;21661;50.794;-1.066;2023-06-24T06:37:15;17.52;;;10.40;;
35558;SDS011;21661;50.794;-1.066;2023-06-24T06:39:40;17.13;;;10.43;;
35558;SDS011;21661;50.794;-1.066;2023-06-24T06:42:06;16.35;;;10.10;;
35558;SDS011;21661;50.794;-1.066;2023-06-24T06:44:32;13.93;;;10.38;;
35558;SDS011;21661;50.794;-1.066;2023-06-24T06:46:57;15.57;;;9.55;;
35558;SDS011;21661;50.794;-1.066;2023-06-24T06:49:23;17.73;;;10.15;;
35558;SDS011;21661;50.794;-1.066;2023-06-24T06:51:48;15.98;;;10.38;;
35558;SDS011;21661;50.794;-1.066;2023-06-24T06:54:14;16.17;;;10.38;;
35558;SDS011;21661;50.794;-1.066;2023-06-24T06:56:40;16.65;;;10.45;;
35558;SDS011;21661;50.794;-1.066;2023-06-24T06:59:05;13.98;;;10.10;;
35558;SDS011;21661;50.794;-1.066;2023-06-24T07:01:31;15.18;;;10.13;;
35558;SDS011;21661;50.794;-1.066;2023-06-24T07:03:57;14.38;;;10.50;;
35558;SDS011;21661;50.794;-1.066;2023-06-24T07:06:22;17.73;;;9.65;;
35558;SDS011;21661;50.794;-1.066;2023-06-24T07:08:48;16.95;;;10.25;;
35558;SDS011;21661;50.794;-1.066;2023-06-24T07:11:13;16.75;;;10.25;;
35558;SDS011;21661;50.794;-1.066;2023-06-24T07:13:39;11.90;;;8.90;;
35558;SDS011;21661;50.794;-1.066;2023-06-24T07:16:05;14.55;;;9.82;;
35558;SDS011;21661;50.794;-1.066;2023-06-24T07:18:30;15.70;;;9.25;;
35558;SDS011;21661;50.794;-1.066;2023-06-24T07:20:56;13.25;;;9.35;;
35558;SDS011;21661;50.794;-1.066;2023-06-24T07:23:24;15.63;;;9.52;;
35558;SDS011;21661;50.794;-1.066;2023-06-24T07:25:50;14.40;;;9.05;;
35558;SDS011;21661;50.794;-1.066;2023-06-24T07:28:16;13.75;;;8.80;;
35558;SDS011;21661;50.794;-1.066;2023-06-24T07:30:42;14.75;;;9.65;;
35558;SDS011;21661;50.794;-1.066;2023-06-24T07:33:07;13.27;;;9.57;;
35558;SDS011;21661;50.794;-1.066;2023-06-24T07:35:33;16.00;;;10.20;;
35558;SDS011;21661;50.794;-1.066;2023-06-24T07:37:59;12.00;;;9.45;;
35558;SDS011;21661;50.794;-1.066;2023-06-24T07:40:25;17.95;;;9.52;;
35558;SDS011;21661;50.794;-1.066;2023-06-24T07:42:51;13.80;;;9.35;;
35558;SDS011;21661;50.794;-1.066;2023-06-24T07:45:16;15.07;;;9.10;;
35558;SDS011;21661;50.794;-1.066;2023-06-24T07:47:42;15.80;;;8.23;;
35558;SDS011;21661;50.794;-1.066;2023-06-24T07:50:07;12.40;;;9.40;;
35558;SDS011;21661;50.794;-1.066;2023-06-24T07:52:35;13.75;;;8.57;;
35558;SDS011;21661;50.794;-1.066;2023-06-24T07:55:02;13.63;;;9.23;;
35558;SDS011;21661;50.794;-1.066;2023-06-24T07:57:28;12.80;;;8.88;;
35558;SDS011;21661;50.794;-1.066;2023-06-24T07:59:54;12.98;;;8.52;;
35558;SDS011;21661;50.794;-1.066;2023-06-24T08:02:20;11.15;;;7.82;;
35558;SDS011;21661;50.794;-1.066;2023-06-24T08:04:46;13.65;;;8.50;;
35558;SDS011;21661;50.794;-1.066;2023-06-24T08:07:12;15.38;;;8.18;;
35558;SDS011;21661;50.794;-1.066;2023-06-24T08:09:37;13.05;;;8.35;;
35558;SDS011;21661;50.794;-1.066;2023-06-24T08:12:03;13.05;;;8.80;;
35558;SDS011;21661;50.794;-1.066;2023-06-24T08:14:29;11.75;;;8.23;;
35558;SDS011;21661;50.794;-1.066;2023-06-24T08:16:54;11.02;;;8.35;;
35558;SDS011;21661;50.794;-1.066;2023-06-24T08:19:20;12.00;;;8.15;;
35558;SDS011;21661;50.794;-1.066;2023-06-24T08:21:46;12.63;;;9.18;;
35558;SDS011;21661;50.794;-1.066;2023-06-24T08:24:11;13.00;;;9.45;;
35558;SDS011;21661;50.794;-1.066;2023-06-24T08:26:37;18.67;;;10.32;;
35558;SDS011;21661;50.794;-1.066;2023-06-24T08:29:03;15.32;;;9.88;;
35558;SDS011;21661;50.794;-1.066;2023-06-24T08:31:28;14.02;;;9.13;;
35558;SDS011;21661;50.794;-1.066;2023-06-24T08:33:54;17.45;;;9.68;;
35558;SDS011;21661;50.794;-1.066;2023-06-24T08:36:25;14.82;;;9.82;;
35558;SDS011;21661;50.794;-1.066;2023-06-24T08:38:52;12.98;;;10.05;;
35558;SDS011;21661;50.794;-1.066;2023-06-24T08:41:18;14.05;;;9.85;;
35558;SDS011;21661;50.794;-1.066;2023-06-24T08:43:43;14.05;;;9.77;;
35558;SDS011;21661;50.794;-1.066;2023-06-24T08:46:09;11.30;;;8.57;;
35558;SDS011;21661;50.794;-1.066;2023-06-24T08:48:35;14.73;;;10.15;;
35558;SDS011;21661;50.794;-1.066;2023-06-24T08:51:05;12.30;;;8.77;;
35558;SDS011;21661;50.794;-1.066;2023-06-24T08:53:34;16.98;;;9.82;;
35558;SDS011;21661;50.794;-1.066;2023-06-24T08:56:02;12.45;;;9.15;;
35558;SDS011;21661;50.794;-1.066;2023-06-24T08:58:28;12.55;;;8.93;;
35558;SDS011;21661;50.794;-1.066;2023-06-24T09:00:54;11.98;;;9.95;;
35558;SDS011;21661;50.794;-1.066;2023-06-24T09:03:19;15.25;;;10.05;;
35558;SDS011;21661;50.794;-1.066;2023-06-24T09:05:45;13.27;;;9.63;;
35558;SDS011;21661;50.794;-1.066;2023-06-24T09:08:10;13.68;;;9.55;;
35558;SDS011;21661;50.794;-1.066;2023-06-24T09:10:37;15.35;;;10.07;;
35558;SDS011;21661;50.794;-1.066;2023-06-24T09:13:03;13.43;;;9.82;;
35558;SDS011;21661;50.794;-1.066;2023-06-24T09:15:31;13.82;;;9.77;;
35558;SDS011;21661;50.794;-1.066;2023-06-24T09:18:01;13.00;;;10.60;;
35558;SDS011;21661;50.794;-1.066;2023-06-24T09:20:27;14.68;;;9.73;;
35558;SDS011;21661;50.794;-1.066;2023-06-24T09:23:03;12.85;;;9.35;;
35558;SDS011;21661;50.794;-1.066;2023-06-24T09:25:30;13.60;;;10.20;;
35558;SDS011;21661;50.794;-1.066;2023-06-24T09:27:59;12.73;;;10.13;;
35558;SDS011;21661;50.794;-1.066;2023-06-24T09:30:28;12.93;;;10.07;;
35558;SDS011;21661;50.794;-1.066;2023-06-24T09:32:54;11.63;;;9.35;;
35558;SDS011;21661;50.794;-1.066;2023-06-24T09:35:21;15.48;;;10.45;;
35558;SDS011;21661;50.794;-1.066;2023-06-24T09:37:52;13.35;;;10.02;;
35558;SDS011;21661;50.794;-1.066;2023-06-24T09:40:21;15.88;;;10.38;;
35558;SDS011;21661;50.794;-1.066;2023-06-24T09:42:48;17.13;;;10.05;;
35558;SDS011;21661;50.794;-1.066;2023-06-24T09:45:21;12.73;;;10.27;;
35558;SDS011;21661;50.794;-1.066;2023-06-24T09:47:52;13.60;;;9.48;;
35558;SDS011;21661;50.794;-1.066;2023-06-24T09:50:18;15.02;;;9.27;;
35558;SDS011;21661;50.794;-1.066;2023-06-24T09:52:44;13.27;;;9.50;;
35558;SDS011;21661;50.794;-1.066;2023-06-24T09:55:11;14.40;;;8.82;;
35558;SDS011;21661;50.794;-1.066;2023-06-24T09:57:39;14.57;;;9.45;;
35558;SDS011;21661;50.794;-1.066;2023-06-24T10:00:07;13.65;;;9.25;;
35558;SDS011;21661;50.794;-1.066;2023-06-24T10:02:35;12.55;;;8.32;;
35558;SDS011;21661;50.794;-1.066;2023-06-24T10:05:01;10.15;;;7.63;;
35558;SDS011;21661;50.794;-1.066;2023-06-24T10:07:27;10.80;;;7.85;;
35558;SDS011;21661;50.794;-1.066;2023-06-24T10:09:53;10.55;;;7.32;;
35558;SDS011;21661;50.794;-1.066;2023-06-24T10:12:19;12.02;;;8.70;;
35558;SDS011;21661;50.794;-1.066;2023-06-24T10:14:45;13.35;;;8.45;;
35558;SDS011;21661;50.794;-1.066;2023-06-24T10:17:11;12.90;;;8.57;;
35558;SDS011;21661;50.794;-1.066;2023-06-24T10:19:38;14.40;;;8.57;;
35558;SDS011;21661;50.794;-1.066;2023-06-24T10:22:08;14.20;;;8.55;;
35558;SDS011;21661;50.794;-1.066;2023-06-24T10:24:36;8.98;;;7.70;;
35558;SDS011;21661;50.794;-1.066;2023-06-24T10:27:14;12.23;;;7.68;;
35558;SDS011;21661;50.794;-1.066;2023-06-24T10:29:45;12.07;;;7.38;;
35558;SDS011;21661;50.794;-1.066;2023-06-24T10:32:12;8.15;;;7.03;;
35558;SDS011;21661;50.794;-1.066;2023-06-24T10:42:39;11.38;;;8.57;;
35558;SDS011;21661;50.794;-1.066;2023-06-24T10:47:34;14.05;;;7.65;;
35558;SDS011;21661;50.794;-1.066;2023-06-24T10:52:51;13.10;;;8.70;;
35558;SDS011;21661;50.794;-1.066;2023-06-24T10:55:21;11.05;;;7.40;;
35558;SDS011;21661;50.794;-1.066;2023-06-24T10:57:49;11.10;;;8.15;;
35558;SDS011;21661;50.794;-1.066;2023-06-24T11:00:15;11.48;;;7.80;;
35558;SDS011;21661;50.794;-1.066;2023-06-24T11:02:41;11.27;;;7.68;;
35558;SDS011;21661;50.794;-1.066;2023-06-24T11:05:07;10.90;;;7.50;;
35558;SDS011;21661;50.794;-1.066;2023-06-24T11:07:36;12.57;;;7.53;;
35558;SDS011;21661;50.794;-1.066;2023-06-24T11:10:15;11.88;;;7.93;;
35558;SDS011;21661;50.794;-1.066;2023-06-24T11:12:41;9.50;;;7.07;;
35558;SDS011;21661;50.794;-1.066;2023-06-24T11:15:09;10.88;;;7.13;;
35558;SDS011;21661;50.794;-1.066;2023-06-24T11:17:36;9.43;;;7.10;;
35558;SDS011;21661;50.794;-1.066;2023-06-24T11:20:06;9.45;;;6.85;;
35558;SDS011;21661;50.794;-1.066;2023-06-24T11:22:32;12.45;;;7.18;;
35558;SDS011;21661;50.794;-1.066;2023-06-24T11:24:58;13.77;;;7.28;;
35558;SDS011;21661;50.794;-1.066;2023-06-24T11:27:24;9.60;;;6.55;;
35558;SDS011;21661;50.794;-1.066;2023-06-24T11:29:51;9.00;;;6.78;;
35558;SDS011;21661;50.794;-1.066;2023-06-24T11:32:18;8.88;;;6.18;;
35558;SDS011;21661;50.794;-1.066;2023-06-24T11:34:44;9.48;;;6.82;;
35558;SDS011;21661;50.794;-1.066;2023-06-24T11:37:14;11.50;;;7.63;;
35558;SDS011;21661;50.794;-1.066;2023-06-24T11:39:41;9.05;;;6.60;;
35558;SDS011;21661;50.794;-1.066;2023-06-24T11:42:07;11.93;;;6.85;;
35558;SDS011;21661;50.794;-1.066;2023-06-24T11:44:34;10.18;;;6.68;;
35558;SDS011;21661;50.794;-1.066;2023-06-24T11:47:03;11.73;;;7.40;;
35558;SDS011;21661;50.794;-1.066;2023-06-24T11:49:30;9.60;;;6.60;;
35558;SDS011;21661;50.794;-1.066;2023-06-24T11:51:56;8.73;;;6.20;;
35558;SDS011;21661;50.794;-1.066;2023-06-24T11:54:21;9.75;;;6.15;;
35558;SDS011;21661;50.794;-1.066;2023-06-24T11:56:50;10.75;;;6.35;;
35558;SDS011;21661;50.794;-1.066;2023-06-24T12:01:57;7.35;;;6.10;;
35558;SDS011;21661;50.794;-1.066;2023-06-24T12:04:28;9.48;;;6.28;;
35558;SDS011;21661;50.794;-1.066;2023-06-24T12:06:57;9.82;;;6.55;;
35558;SDS011;21661;50.794;-1.066;2023-06-24T12:09:24;9.73;;;6.93;;
35558;SDS011;21661;50.794;-1.066;2023-06-24T12:11:49;9.05;;;6.78;;
35558;SDS011;21661;50.794;-1.066;2023-06-24T12:14:16;11.95;;;8.73;;
35558;SDS011;21661;50.794;-1.066;2023-06-24T12:16:41;10.43;;;7.53;;
35558;SDS011;21661;50.794;-1.066;2023-06-24T12:19:07;9.25;;;6.93;;
35558;SDS011;21661;50.794;-1.066;2023-06-24T12:21:33;8.85;;;6.95;;
35558;SDS011;21661;50.794;-1.066;2023-06-24T12:24:00;12.25;;;7.72;;
35558;SDS011;21661;50.794;-1.066;2023-06-24T12:26:26;12.90;;;6.82;;
35558;SDS011;21661;50.794;-1.066;2023-06-24T12:28:54;11.38;;;6.63;;
35558;SDS011;21661;50.794;-1.066;2023-06-24T12:31:26;9.93;;;6.65;;
35558;SDS011;21661;50.794;-1.066;2023-06-24T12:33:51;7.65;;;6.50;;
35558;SDS011;21661;50.794;-1.066;2023-06-24T12:36:18;10.98;;;5.97;;
35558;SDS011;21661;50.794;-1.066;2023-06-24T12:38:44;7.50;;;6.07;;
35558;SDS011;21661;50.794;-1.066;2023-06-24T12:41:09;10.68;;;5.90;;
35558;SDS011;21661;50.794;-1.066;2023-06-24T12:43:35;7.53;;;5.47;;
35558;SDS011;21661;50.794;-1.066;2023-06-24T12:46:00;11.43;;;6.20;;
35558;SDS011;21661;50.794;-1.066;2023-06-24T12:48:26;7.93;;;6.10;;
35558;SDS011;21661;50.794;-1.066;2023-06-24T12:50:51;7.60;;;5.40;;
35558;SDS011;21661;50.794;-1.066;2023-06-24T12:53:20;10.30;;;5.82;;
35558;SDS011;21661;50.794;-1.066;2023-06-24T12:55:46;8.27;;;5.50;;
35558;SDS011;21661;50.794;-1.066;2023-06-24T12:58:13;8.43;;;5.88;;
35558;SDS011;21661;50.794;-1.066;2023-06-24T13:00:39;8.80;;;5.60;;
35558;SDS011;21661;50.794;-1.066;2023-06-24T13:03:05;8.55;;;5.88;;
35558;SDS011;21661;50.794;-1.066;2023-06-24T13:05:31;8.93;;;6.10;;
35558;SDS011;21661;50.794;-1.066;2023-06-24T13:07:56;9.95;;;5.97;;
35558;SDS011;21661;50.794;-1.066;2023-06-24T13:10:22;9.95;;;5.75;;
35558;SDS011;21661;50.794;-1.066;2023-06-24T13:12:48;7.60;;;5.32;;
35558;SDS011;21661;50.794;-1.066;2023-06-24T13:15:14;8.32;;;6.13;;
35558;SDS011;21661;50.794;-1.066;2023-06-24T13:17:39;8.38;;;6.07;;
35558;SDS011;21661;50.794;-1.066;2023-06-24T13:20:05;8.80;;;5.38;;
35558;SDS011;21661;50.794;-1.066;2023-06-24T13:22:31;9.80;;;6.40;;
35558;SDS011;21661;50.794;-1.066;2023-06-24T13:24:57;8.68;;;6.30;;
35558;SDS011;21661;50.794;-1.066;2023-06-24T13:27:22;9.20;;;5.35;;
35558;SDS011;21661;50.794;-1.066;2023-06-24T13:29:48;11.13;;;5.20;;
35558;SDS011;21661;50.794;-1.066;2023-06-24T13:32:14;11.60;;;5.40;;
35558;SDS011;21661;50.794;-1.066;2023-06-24T13:34:39;10.48;;;5.63;;
35558;SDS011;21661;50.794;-1.066;2023-06-24T13:37:05;9.00;;;5.22;;
35558;SDS011;21661;50.794;-1.066;2023-06-24T13:39:31;6.95;;;5.07;;
35558;SDS011;21661;50.794;-1.066;2023-06-24T13:41:57;9.23;;;4.70;;
35558;SDS011;21661;50.794;-1.066;2023-06-24T13:44:23;7.70;;;5.00;;
35558;SDS011;21661;50.794;-1.066;2023-06-24T13:46:49;5.97;;;4.70;;
35558;SDS011;21661;50.794;-1.066;2023-06-24T13:49:18;7.55;;;4.80;;
35558;SDS011;21661;50.794;-1.066;2023-06-24T13:51:44;6.80;;;5.28;;
35558;SDS011;21661;50.794;-1.066;2023-06-24T13:54:09;8.98;;;5.47;;
35558;SDS011;21661;50.794;-1.066;2023-06-24T13:56:35;7.40;;;5.05;;
35558;SDS011;21661;50.794;-1.066;2023-06-24T13:59:01;10.23;;;4.78;;
35558;SDS011;21661;50.794;-1.066;2023-06-24T14:01:27;9.15;;;5.00;;
35558;SDS011;21661;50.794;-1.066;2023-06-24T14:03:56;8.43;;;5.18;;
35558;SDS011;21661;50.794;-1.066;2023-06-24T14:06:22;7.38;;;4.95;;
35558;SDS011;21661;50.794;-1.066;2023-06-24T14:08:49;7.03;;;4.63;;
35558;SDS011;21661;50.794;-1.066;2023-06-24T14:11:16;8.88;;;4.95;;
35558;SDS011;21661;50.794;-1.066;2023-06-24T14:13:42;7.95;;;4.60;;
35558;SDS011;21661;50.794;-1.066;2023-06-24T14:16:08;6.85;;;5.03;;
35558;SDS011;21661;50.794;-1.066;2023-06-24T14:18:35;7.43;;;4.60;;
35558;SDS011;21661;50.794;-1.066;2023-06-24T14:21:01;7.18;;;4.90;;
35558;SDS011;21661;50.794;-1.066;2023-06-24T14:23:28;9.10;;;4.90;;
35558;SDS011;21661;50.794;-1.066;2023-06-24T14:25:55;7.47;;;4.80;;
35558;SDS011;21661;50.794;-1.066;2023-06-24T14:28:21;7.75;;;5.13;;
35558;SDS011;21661;50.794;-1.066;2023-06-24T14:30:47;8.20;;;5.85;;
35558;SDS011;21661;50.794;-1.066;2023-06-24T14:33:13;11.65;;;7.30;;
35558;SDS011;21661;50.794;-1.066;2023-06-24T14:35:39;10.13;;;6.38;;
35558;SDS011;21661;50.794;-1.066;2023-06-24T14:38:05;7.22;;;5.00;;
35558;SDS011;21661;50.794;-1.066;2023-06-24T14:40:31;11.55;;;5.85;;
35558;SDS011;21661;50.794;-1.066;2023-06-24T14:42:58;7.60;;;5.07;;
35558;SDS011;21661;50.794;-1.066;2023-06-24T14:45:24;7.10;;;4.40;;
35558;SDS011;21661;50.794;-1.066;2023-06-24T14:47:50;8.55;;;4.57;;
35558;SDS011;21661;50.794;-1.066;2023-06-24T14:50:15;7.68;;;4.82;;